Time;durP1;ratioP1;P1;durP2;ratioP2;P2;SDS_P1;SDS_P2;PMS_P1;PMS_P2;Temp;Humidity;BMP_temperature;BMP_pressure;BME280_temperature;BME280_humidity;BME280_pressure;Samples;Min_cycle;Max_cycle;Signal;HPM_P1;HPM_P2
2021/10/30 00:00:12;;;;;;;12.50;9.13;;;;;;;11.55;86.95;100581.09;5042730;28;20053;-75
2021/10/30 00:02:38;;;;;;;13.82;9.75;;;;;;;11.55;86.86;100584.63;5044248;28;20069;-75
2021/10/30 00:05:05;;;;;;;11.68;9.40;;;;;;;11.52;87.01;100576.75;5042777;28;20038;-73
2021/10/30 00:07:31;;;;;;;14.65;9.07;;;;;;;11.49;86.79;100592.56;5042157;28;20038;-76
2021/10/30 00:09:56;;;;;;;13.82;9.68;;;;;;;11.46;86.76;100582.09;5043103;28;20060;-75
2021/10/30 00:12:21;;;;;;;14.63;9.95;;;;;;;11.47;87.43;100589.06;5042150;28;20072;-76
2021/10/30 00:14:48;;;;;;;14.00;9.75;;;;;;;11.50;87.93;100582.03;5042855;28;20037;-75
2021/10/30 00:17:14;;;;;;;13.93;10.05;;;;;;;11.55;87.26;100565.31;5031513;28;20042;-75
2021/10/30 00:19:41;;;;;;;15.63;10.40;;;;;;;11.58;86.74;100576.69;5042083;28;20033;-75
2021/10/30 00:22:08;;;;;;;14.70;9.85;;;;;;;11.62;87.16;100570.50;5045324;28;20037;-74
2021/10/30 00:24:33;;;;;;;17.60;10.10;;;;;;;11.66;86.83;100560.81;5042436;28;20373;-74
2021/10/30 00:27:00;;;;;;;12.88;9.55;;;;;;;11.69;86.37;100563.44;5043113;28;20045;-73
2021/10/30 00:29:25;;;;;;;15.93;10.20;;;;;;;11.73;86.39;100562.50;5042232;28;20037;-75
2021/10/30 00:31:51;;;;;;;18.48;9.57;;;;;;;11.74;86.69;100560.72;5042716;28;20076;-75
2021/10/30 00:34:16;;;;;;;15.68;10.55;;;;;;;11.74;86.58;100563.34;5038616;28;20065;-75
2021/10/30 00:36:42;;;;;;;15.27;10.43;;;;;;;11.75;86.24;100570.38;5041873;28;20030;-74
2021/10/30 00:39:09;;;;;;;18.23;10.40;;;;;;;11.75;86.15;100563.34;5039735;28;20021;-73
2021/10/30 00:41:34;;;;;;;16.70;11.05;;;;;;;11.78;86.21;100562.47;5041952;28;20037;-74
2021/10/30 00:44:10;;;;;;;15.35;11.27;;;;;;;11.79;85.70;100559.78;5042355;28;20037;-74
2021/10/30 00:46:39;;;;;;;13.70;10.27;;;;;;;11.83;85.63;100560.63;5042031;28;20033;-76
2021/10/30 00:49:04;;;;;;;15.65;11.20;;;;;;;11.86;85.23;100563.25;5042652;28;20089;-74
2021/10/30 00:51:32;;;;;;;17.80;10.98;;;;;;;11.95;85.32;100565.81;5044373;28;20037;-74
2021/10/30 00:54:00;;;;;;;15.50;11.27;;;;;;;11.99;84.79;100561.38;5045921;28;20460;-75
2021/10/30 00:56:27;;;;;;;13.57;9.43;;;;;;;12.13;85.25;100556.78;5046420;28;20056;-74
2021/10/30 00:58:55;;;;;;;14.80;10.68;;;;;;;12.17;84.52;100552.34;5045731;28;20030;-75
2021/10/30 01:01:21;;;;;;;12.23;10.55;;;;;;;12.13;83.92;100546.25;5046255;28;20037;-74
2021/10/30 01:03:46;;;;;;;19.80;11.00;;;;;;;12.14;83.74;100541.88;5043908;28;20036;-74
2021/10/30 01:06:11;;;;;;;18.52;11.10;;;;;;;12.15;83.51;100538.34;5045979;28;20038;-75
2021/10/30 01:08:37;;;;;;;13.70;10.50;;;;;;;12.13;83.34;100526.94;5044233;28;20097;-75
2021/10/30 01:11:05;;;;;;;16.17;10.63;;;;;;;12.14;83.47;100529.56;5045802;28;20037;-75
2021/10/30 01:13:31;;;;;;;13.98;10.23;;;;;;;12.12;84.07;100525.19;5046057;28;20180;-75
2021/10/30 01:15:58;;;;;;;12.23;10.30;;;;;;;12.11;83.18;100518.22;5045247;28;20034;-73
2021/10/30 01:18:23;;;;;;;16.42;10.63;;;;;;;12.11;84.03;100520.84;5045432;28;20092;-74
2021/10/30 01:20:51;;;;;;;12.45;9.82;;;;;;;12.12;83.76;100517.28;5046203;28;20033;-74
2021/10/30 01:23:17;;;;;;;12.32;9.45;;;;;;;12.12;83.86;100514.66;5045949;28;20030;-73
2021/10/30 01:25:44;;;;;;;14.27;10.35;;;;;;;12.09;83.96;100515.59;5046022;28;20082;-74
2021/10/30 01:28:10;;;;;;;11.55;9.43;;;;;;;12.09;84.12;100516.44;5035465;28;20389;-74
2021/10/30 01:30:36;;;;;;;13.07;9.23;;;;;;;12.12;83.90;100518.19;5045446;28;20025;-74
2021/10/30 01:33:04;;;;;;;12.95;9.73;;;;;;;12.09;83.69;100515.59;5043991;28;20044;-74
2021/10/30 01:35:43;;;;;;;11.60;10.02;;;;;;;12.09;83.57;100519.09;5042737;28;20026;-74
2021/10/30 01:38:11;;;;;;;12.88;9.65;;;;;;;12.11;83.83;100513.81;5048257;28;20025;-73
2021/10/30 01:40:40;;;;;;;10.82;9.00;;;;;;;12.12;83.94;100526.09;5043239;28;20083;-75
2021/10/30 01:43:07;;;;;;;14.77;8.93;;;;;;;12.16;83.63;100516.38;5042748;28;20070;-73
2021/10/30 01:45:32;;;;;;;13.82;9.20;;;;;;;12.15;83.28;100518.13;5045070;28;20036;-74
2021/10/30 01:47:58;;;;;;;12.68;9.07;;;;;;;12.19;82.91;100511.06;5045778;28;20029;-74
2021/10/30 01:50:25;;;;;;;14.90;9.60;;;;;;;12.15;83.83;100512.88;5045259;28;20030;-75
2021/10/30 01:52:52;;;;;;;11.13;9.10;;;;;;;12.17;83.69;100508.44;5045388;28;20033;-74
2021/10/30 01:55:21;;;;;;;12.65;10.23;;;;;;;12.15;83.67;100497.06;5045046;28;20547;-74
2021/10/30 01:57:47;;;;;;;11.10;8.77;;;;;;;12.16;83.95;100495.31;5044575;28;20082;-73
2021/10/30 02:00:14;;;;;;;14.20;9.32;;;;;;;12.14;83.89;100490.06;5044327;28;20041;-74
2021/10/30 02:02:40;;;;;;;11.63;8.63;;;;;;;12.13;84.49;100479.53;5044128;28;20059;-74
2021/10/30 02:05:07;;;;;;;11.48;8.35;;;;;;;12.15;83.36;100475.13;5044326;28;20492;-72
2021/10/30 02:07:32;;;;;;;12.40;8.20;;;;;;;12.16;84.01;100464.56;5044352;28;20022;-75
2021/10/30 02:09:58;;;;;;;11.57;8.38;;;;;;;12.17;84.10;100460.16;5045075;28;20029;-74
2021/10/30 02:12:24;;;;;;;10.65;8.02;;;;;;;12.11;84.02;100453.22;5045119;28;20049;-73
2021/10/30 02:14:49;;;;;;;12.18;7.65;;;;;;;12.09;83.54;100455.00;5044840;28;20417;-74
2021/10/30 02:17:14;;;;;;;10.82;8.02;;;;;;;12.03;83.87;100457.75;5043645;28;20038;-75
2021/10/30 02:19:40;;;;;;;12.32;8.07;;;;;;;12.01;84.06;100452.50;5044165;28;20369;-74
2021/10/30 02:22:06;;;;;;;13.40;8.32;;;;;;;11.99;84.41;100438.47;5044112;28;20054;-74
2021/10/30 02:24:32;;;;;;;14.05;8.80;;;;;;;11.96;84.15;100441.13;5045746;28;20036;-74
2021/10/30 02:26:58;;;;;;;12.13;8.57;;;;;;;11.96;84.86;100448.19;5045271;28;20029;-74
2021/10/30 02:29:24;;;;;;;11.70;8.32;;;;;;;11.95;84.85;100438.56;5044080;28;20172;-74
2021/10/30 02:31:49;;;;;;;14.10;10.52;;;;;;;11.94;84.54;100428.91;5044862;28;20044;-74
2021/10/30 02:34:14;;;;;;;14.43;10.13;;;;;;;11.90;84.43;100414.91;5041979;28;20076;-75
2021/10/30 02:36:40;;;;;;;13.60;9.68;;;;;;;11.86;84.76;100423.72;5047850;28;20037;-74
2021/10/30 02:39:05;;;;;;;13.07;9.63;;;;;;;11.81;84.84;100421.13;5042113;28;20029;-75
2021/10/30 02:41:31;;;;;;;13.07;9.68;;;;;;;11.80;84.95;100411.50;5043733;28;20029;-75
2021/10/30 02:43:56;;;;;;;15.30;10.43;;;;;;;11.80;85.35;100411.50;5043810;28;20057;-75
2021/10/30 02:46:21;;;;;;;14.90;9.80;;;;;;;11.77;85.11;100410.66;5043940;28;20029;-74
2021/10/30 02:48:47;;;;;;;13.13;10.13;;;;;;;11.73;85.18;100407.19;5044461;28;20454;-74
2021/10/30 02:51:12;;;;;;;15.27;10.25;;;;;;;11.74;85.76;100394.91;5043954;28;20508;-75
2021/10/30 02:53:38;;;;;;;14.30;10.50;;;;;;;11.73;85.32;100393.19;5043905;28;20026;-75
2021/10/30 02:56:03;;;;;;;13.35;9.98;;;;;;;11.72;85.45;100394.94;5044105;28;20057;-74
2021/10/30 02:58:29;;;;;;;15.73;10.32;;;;;;;11.71;85.50;100394.06;5043875;28;20030;-77
2021/10/30 03:00:55;;;;;;;12.60;10.15;;;;;;;11.69;85.26;100385.31;5044564;28;20081;-75
2021/10/30 03:03:20;;;;;;;12.68;9.40;;;;;;;11.73;85.98;100375.63;5044053;28;20544;-73
2021/10/30 03:05:45;;;;;;;14.23;9.15;;;;;;;11.74;85.98;100371.22;5044106;28;20045;-75
2021/10/30 03:08:11;;;;;;;12.90;9.73;;;;;;;11.75;85.38;100357.19;5043200;28;20047;-75
2021/10/30 03:10:36;;;;;;;13.13;9.93;;;;;;;11.79;85.78;100359.72;5040907;28;20104;-74
2021/10/30 03:13:01;;;;;;;12.88;9.85;;;;;;;11.80;85.31;100358.84;5044500;28;20049;-74
2021/10/30 03:15:27;;;;;;;13.88;10.00;;;;;;;11.79;85.86;100353.59;5041545;28;20038;-74
2021/10/30 03:17:52;;;;;;;12.40;9.23;;;;;;;11.79;85.60;100353.59;5043053;28;20025;-75
2021/10/30 03:20:18;;;;;;;17.48;11.18;;;;;;;11.73;85.73;100356.34;5043487;28;20038;-74
2021/10/30 03:22:44;;;;;;;14.85;9.50;;;;;;;11.71;86.21;100345.81;5043693;28;20029;-75
2021/10/30 03:25:10;;;;;;;11.73;9.43;;;;;;;11.68;86.20;100338.84;5048776;28;20040;-76
2021/10/30 03:27:36;;;;;;;13.75;9.82;;;;;;;11.71;86.33;100330.91;5044935;28;20028;-75
2021/10/30 03:30:04;;;;;;;15.13;9.35;;;;;;;11.69;86.24;100321.28;5042695;28;20080;-74
2021/10/30 03:32:30;;;;;;;12.77;9.88;;;;;;;11.68;86.74;100322.16;5043417;28;20064;-74
2021/10/30 03:34:55;;;;;;;14.60;9.88;;;;;;;11.68;86.73;100328.31;5045466;28;20062;-74
2021/10/30 03:37:21;;;;;;;13.57;9.45;;;;;;;11.67;86.47;100328.34;5043911;28;20032;-76
2021/10/30 03:39:46;;;;;;;14.88;9.65;;;;;;;11.67;86.87;100320.44;5040925;28;20029;-74
2021/10/30 03:42:12;;;;;;;12.90;9.32;;;;;;;11.65;86.83;100317.84;5043181;28;20409;-74
2021/10/30 03:44:37;;;;;;;13.27;9.45;;;;;;;11.66;87.16;100314.31;5042991;28;20508;-73
2021/10/30 03:47:02;;;;;;;13.40;9.57;;;;;;;11.69;86.99;100310.75;5043404;28;20033;-74
2021/10/30 03:49:28;;;;;;;14.73;9.70;;;;;;;11.66;87.38;100321.31;5043390;28;20128;-75
2021/10/30 03:51:53;;;;;;;13.10;9.85;;;;;;;11.64;87.69;100317.84;5043299;28;20044;-75
2021/10/30 03:54:19;;;;;;;14.43;10.13;;;;;;;11.65;87.94;100312.56;5043216;28;20401;-74
2021/10/30 03:56:44;;;;;;;11.88;9.10;;;;;;;11.65;87.76;100302.03;5042538;28;20485;-75
2021/10/30 03:59:09;;;;;;;12.68;9.80;;;;;;;11.64;87.66;100288.91;5042238;28;20025;-75
2021/10/30 04:01:35;;;;;;;15.23;9.77;;;;;;;11.63;87.57;100288.03;5042861;28;20035;-75
2021/10/30 04:04:01;;;;;;;13.70;9.95;;;;;;;11.63;88.32;100288.03;5042425;28;20034;-74
2021/10/30 04:06:26;;;;;;;12.50;9.65;;;;;;;11.62;88.12;100291.53;5043039;28;20066;-74
2021/10/30 04:08:51;;;;;;;12.00;9.82;;;;;;;11.63;88.29;100280.16;5041457;28;20037;-76
2021/10/30 04:11:17;;;;;;;14.00;9.82;;;;;;;11.64;88.24;100281.88;5040826;28;20120;-73
2021/10/30 04:13:42;;;;;;;12.98;10.20;;;;;;;11.62;88.69;100282.78;5042757;28;20038;-75
2021/10/30 04:16:08;;;;;;;13.65;9.70;;;;;;;11.63;88.13;100274.03;5043084;28;20021;-75
2021/10/30 04:18:33;;;;;;;12.07;9.55;;;;;;;11.62;88.22;100273.13;5038990;28;20030;-76
2021/10/30 04:20:59;;;;;;;14.75;9.88;;;;;;;11.61;88.39;100266.13;5043132;28;20029;-75
2021/10/30 04:23:24;;;;;;;12.50;9.98;;;;;;;11.60;88.09;100274.91;5042845;28;20045;-75
2021/10/30 04:25:50;;;;;;;11.88;8.70;;;;;;;11.66;88.07;100266.94;5044250;28;20392;-73
2021/10/30 04:28:15;;;;;;;11.70;9.27;;;;;;;11.65;88.22;100265.19;5047050;28;20034;-77
2021/10/30 04:30:40;;;;;;;15.48;9.52;;;;;;;11.64;88.40;100263.44;5045855;28;20101;-72
2021/10/30 04:33:07;;;;;;;16.98;9.65;;;;;;;11.64;88.69;100246.78;5046356;28;20022;-74
2021/10/30 04:35:32;;;;;;;15.65;9.27;;;;;;;11.63;89.22;100250.34;5045878;28;20033;-70
2021/10/30 04:37:58;;;;;;;12.13;9.23;;;;;;;11.63;89.06;100256.47;5046491;28;20037;-71
2021/10/30 04:40:23;;;;;;;12.18;9.57;;;;;;;11.59;89.27;100249.50;5041656;28;20072;-71
2021/10/30 04:42:48;;;;;;;11.82;8.93;;;;;;;11.57;89.96;100246.03;5045895;28;20453;-71
2021/10/30 04:45:14;;;;;;;12.38;9.50;;;;;;;11.56;89.92;100246.06;5045755;28;20103;-70
2021/10/30 04:47:39;;;;;;;12.10;9.38;;;;;;;11.57;89.89;100238.16;5046138;28;20045;-70
2021/10/30 04:50:05;;;;;;;16.73;10.15;;;;;;;11.57;90.39;100235.50;5046183;28;20103;-72
2021/10/30 04:52:31;;;;;;;14.50;9.82;;;;;;;11.57;90.21;100227.63;5045634;28;20029;-71
2021/10/30 04:54:56;;;;;;;11.68;9.18;;;;;;;11.57;90.88;100218.84;5046592;28;20444;-70
2021/10/30 04:57:22;;;;;;;13.25;9.32;;;;;;;11.60;90.99;100211.75;5045679;28;20037;-69
2021/10/30 04:59:47;;;;;;;15.48;9.65;;;;;;;11.57;90.70;100208.31;5046887;28;20055;-68
2021/10/30 05:02:13;;;;;;;13.25;9.48;;;;;;;11.56;90.91;100206.59;5046022;28;20025;-70
2021/10/30 05:04:38;;;;;;;13.15;8.98;;;;;;;11.52;90.99;100209.25;5046432;28;20064;-68
2021/10/30 05:07:04;;;;;;;15.35;9.32;;;;;;;11.51;91.72;100201.38;5045396;28;20037;-69
2021/10/30 05:09:31;;;;;;;17.17;9.70;;;;;;;11.52;91.42;100208.41;5041822;28;20041;-69
2021/10/30 05:11:56;;;;;;;14.50;9.82;;;;;;;11.52;91.91;100205.75;5044611;28;20076;-69
2021/10/30 05:14:22;;;;;;;14.20;9.13;;;;;;;11.54;91.60;100195.22;5045536;28;20037;-69
2021/10/30 05:16:48;;;;;;;13.88;9.15;;;;;;;11.55;91.75;100192.56;5044923;28;20045;-70
2021/10/30 05:19:14;;;;;;;12.75;9.13;;;;;;;11.54;91.51;100188.19;5045423;28;20029;-71
2021/10/30 05:21:40;;;;;;;12.75;9.52;;;;;;;11.55;91.71;100194.31;5048355;28;20021;-71
2021/10/30 05:24:05;;;;;;;12.40;9.02;;;;;;;11.61;92.20;100183.72;5045846;28;20034;-69
2021/10/30 05:26:30;;;;;;;13.13;9.98;;;;;;;11.58;91.55;100181.97;5045882;28;20137;-71
2021/10/30 05:28:56;;;;;;;14.77;9.35;;;;;;;11.60;92.15;100182.81;5045047;28;20042;-69
2021/10/30 05:31:22;;;;;;;14.32;10.07;;;;;;;11.60;92.06;100176.69;5045389;28;20045;-71
2021/10/30 05:33:47;;;;;;;12.52;9.68;;;;;;;11.59;92.04;100170.56;5045518;28;20041;-72
2021/10/30 05:36:13;;;;;;;11.77;9.75;;;;;;;11.62;92.20;100159.97;5045533;28;20091;-71
2021/10/30 05:38:50;;;;;;;14.88;9.93;;;;;;;11.62;91.97;100161.75;5043666;28;20029;-73
2021/10/30 05:41:17;;;;;;;12.98;9.75;;;;;;;11.60;92.43;100161.75;5044317;28;20040;-72
2021/10/30 05:43:42;;;;;;;15.13;10.15;;;;;;;11.62;92.38;100149.44;5045083;28;20060;-73
2021/10/30 05:46:08;;;;;;;15.52;10.40;;;;;;;11.60;91.86;100145.97;5046367;28;20124;-75
2021/10/30 05:48:35;;;;;;;12.75;9.55;;;;;;;11.65;91.82;100138.88;5050775;28;20028;-75
2021/10/30 05:51:00;;;;;;;14.85;9.93;;;;;;;11.69;91.82;100144.97;5045207;28;20087;-75
2021/10/30 05:53:26;;;;;;;11.30;9.27;;;;;;;11.68;91.59;100141.47;5042120;28;20037;-72
2021/10/30 05:55:51;;;;;;;13.18;8.65;;;;;;;11.65;91.48;100124.88;5045228;28;20120;-73
2021/10/30 05:58:16;;;;;;;12.15;9.80;;;;;;;11.65;92.00;100132.75;5044376;28;20435;-72
2021/10/30 06:00:42;;;;;;;16.40;9.63;;;;;;;11.73;92.13;100133.47;5044976;28;20029;-75
2021/10/30 06:03:07;;;;;;;10.75;9.15;;;;;;;11.77;91.81;100129.91;5044217;28;20029;-73
2021/10/30 06:05:33;;;;;;;10.20;8.30;;;;;;;11.77;91.24;100136.94;5045162;28;20052;-74
2021/10/30 06:07:58;;;;;;;11.35;8.95;;;;;;;11.77;90.94;100129.03;5043412;28;20037;-74
2021/10/30 06:10:24;;;;;;;10.32;8.15;;;;;;;11.81;91.09;100144.72;5043138;28;20041;-73
2021/10/30 06:12:49;;;;;;;11.02;8.60;;;;;;;11.80;90.51;100143.00;5044001;28;20037;-73
2021/10/30 06:15:15;;;;;;;10.70;8.60;;;;;;;11.79;90.53;100143.03;5039678;28;20057;-72
2021/10/30 06:17:40;;;;;;;9.57;8.00;;;;;;;11.77;90.71;100135.16;5043555;28;20033;-74
2021/10/30 06:20:07;;;;;;;11.88;8.55;;;;;;;11.81;91.36;100139.47;5044829;28;20021;-74
2021/10/30 06:22:33;;;;;;;10.90;8.00;;;;;;;11.85;91.03;100146.44;5043216;28;20029;-73
2021/10/30 06:24:58;;;;;;;16.48;8.18;;;;;;;11.89;90.38;100144.63;5044748;28;20111;-74
2021/10/30 06:27:23;;;;;;;12.43;8.15;;;;;;;11.87;90.75;100143.75;5044898;28;20021;-73
2021/10/30 06:29:49;;;;;;;10.02;7.13;;;;;;;11.88;90.50;100141.09;5043754;28;20033;-74
2021/10/30 06:32:14;;;;;;;11.55;7.93;;;;;;;11.93;91.29;100132.28;5043202;28;20035;-74
2021/10/30 06:34:39;;;;;;;11.43;8.40;;;;;;;11.90;90.30;100122.69;5043394;28;20037;-73
2021/10/30 06:37:06;;;;;;;12.23;8.25;;;;;;;11.90;90.32;100125.31;5044592;28;20041;-74
2021/10/30 06:39:32;;;;;;;13.18;8.48;;;;;;;11.92;91.10;100126.16;5042360;28;20068;-74
2021/10/30 06:41:57;;;;;;;11.95;8.27;;;;;;;11.95;89.74;100117.34;5043680;28;20060;-74
2021/10/30 06:44:23;;;;;;;10.15;8.10;;;;;;;11.89;90.53;100110.41;5043680;28;20033;-75
2021/10/30 06:46:50;;;;;;;15.18;8.40;;;;;;;11.89;90.41;100108.66;5045400;28;20104;-74
2021/10/30 06:49:16;;;;;;;9.85;8.00;;;;;;;11.89;90.26;100094.59;5043899;28;20026;-75
2021/10/30 06:51:42;;;;;;;10.18;7.95;;;;;;;11.89;90.42;100091.97;5044820;28;20034;-74
2021/10/30 06:54:08;;;;;;;11.45;8.07;;;;;;;11.90;90.43;100088.47;5042930;28;20037;-74
2021/10/30 06:56:36;;;;;;;10.40;9.18;;;;;;;11.87;90.42;100081.47;5044598;28;20025;-74
2021/10/30 06:59:05;;;;;;;10.85;8.73;;;;;;;11.86;90.41;100081.50;5044325;28;20030;-74
2021/10/30 07:01:35;;;;;;;11.05;8.27;;;;;;;11.85;90.76;100079.75;5043932;28;20041;-74
2021/10/30 07:04:00;;;;;;;11.48;9.52;;;;;;;11.82;90.70;100070.16;5043732;28;20029;-74
2021/10/30 07:06:25;;;;;;;14.38;8.88;;;;;;;11.81;90.74;100064.91;5043911;28;20091;-74
2021/10/30 07:08:51;;;;;;;11.50;8.05;;;;;;;11.83;90.47;100071.00;5041632;28;20048;-75
2021/10/30 07:11:17;;;;;;;10.23;9.13;;;;;;;11.80;90.66;100084.25;5043750;28;20037;-72
2021/10/30 07:13:42;;;;;;;10.13;8.23;;;;;;;11.83;90.51;100079.78;5047099;28;20033;-70
2021/10/30 07:16:09;;;;;;;12.90;8.20;;;;;;;11.84;90.97;100080.66;5045599;28;20099;-69
2021/10/30 07:18:34;;;;;;;12.23;7.85;;;;;;;11.84;91.04;100075.38;5043266;28;20041;-69
2021/10/30 07:21:00;;;;;;;13.95;8.65;;;;;;;11.84;91.26;100080.66;5040263;28;20025;-69
2021/10/30 07:23:25;;;;;;;12.82;8.70;;;;;;;11.80;90.91;100078.97;5043529;28;20036;-70
2021/10/30 07:25:51;;;;;;;12.57;8.52;;;;;;;11.82;90.65;100077.19;5043702;28;20087;-72
2021/10/30 07:28:16;;;;;;;12.18;8.20;;;;;;;11.80;90.66;100077.22;5043170;28;20071;-71
2021/10/30 07:30:41;;;;;;;11.07;8.07;;;;;;;11.82;90.76;100072.78;5042799;28;20055;-72
2021/10/30 07:33:07;;;;;;;9.00;7.45;;;;;;;11.82;90.63;100061.38;5042392;28;20049;-72
2021/10/30 07:35:32;;;;;;;10.65;7.82;;;;;;;11.87;91.49;100063.03;5038753;28;20033;-72
2021/10/30 07:38:01;;;;;;;10.68;7.45;;;;;;;11.90;90.95;100070.88;5043451;28;20104;-71
2021/10/30 07:40:30;;;;;;;9.02;7.68;;;;;;;11.90;90.45;100062.13;5040733;28;20041;-71
2021/10/30 07:42:57;;;;;;;13.48;7.88;;;;;;;11.89;90.43;100056.00;5041667;28;20079;-72
2021/10/30 07:45:25;;;;;;;13.70;7.57;;;;;;;11.90;90.60;100059.50;5039059;28;20479;-73
2021/10/30 07:47:52;;;;;;;10.18;7.95;;;;;;;11.91;90.76;100042.81;5044209;28;20036;-73
2021/10/30 07:50:17;;;;;;;11.00;7.95;;;;;;;11.90;90.95;100044.56;5043683;28;20053;-73
2021/10/30 07:52:43;;;;;;;12.45;7.93;;;;;;;11.90;90.64;100047.19;5043788;28;20472;-74
2021/10/30 07:55:09;;;;;;;9.45;8.00;;;;;;;11.93;90.90;100037.50;5043361;28;20041;-74
2021/10/30 07:57:35;;;;;;;11.88;7.90;;;;;;;11.94;90.29;100040.09;5043179;28;20029;-72
2021/10/30 08:00:00;;;;;;;10.13;8.07;;;;;;;11.97;90.67;100031.31;5043350;28;20025;-71
2021/10/30 08:02:26;;;;;;;11.70;8.15;;;;;;;11.91;90.27;100037.56;5047190;28;20099;-72
2021/10/30 08:04:51;;;;;;;12.02;8.07;;;;;;;11.90;90.25;100034.03;5043584;28;20453;-72
2021/10/30 08:07:17;;;;;;;12.73;7.65;;;;;;;11.94;90.71;100029.56;5038596;28;20044;-72
2021/10/30 08:09:43;;;;;;;10.43;7.82;;;;;;;11.92;90.71;100031.38;5045180;28;20387;-73
2021/10/30 08:12:12;;;;;;;8.02;7.13;;;;;;;11.93;90.46;100037.50;5047300;28;20524;-74
2021/10/30 08:14:38;;;;;;;10.43;7.67;;;;;;;11.92;90.55;100051.56;5046387;28;20033;-71
2021/10/30 08:17:05;;;;;;;8.75;7.80;;;;;;;11.90;90.59;100046.34;5045903;28;20030;-72
2021/10/30 08:19:31;;;;;;;8.88;7.53;;;;;;;11.96;91.59;100048.84;5043146;28;20361;-74
2021/10/30 08:21:57;;;;;;;10.02;6.82;;;;;;;12.01;90.38;100040.88;5046911;28;20037;-72
2021/10/30 08:24:22;;;;;;;9.45;7.28;;;;;;;12.03;90.55;100036.44;5043401;28;20022;-73
2021/10/30 08:26:48;;;;;;;9.77;7.43;;;;;;;12.07;90.79;100036.31;5044511;28;20029;-73
2021/10/30 08:29:14;;;;;;;8.18;7.07;;;;;;;12.05;89.92;100034.63;5041369;28;20050;-74
2021/10/30 08:31:39;;;;;;;9.82;6.78;;;;;;;12.04;90.19;100033.78;5039782;28;20067;-73
2021/10/30 08:34:05;;;;;;;8.93;6.35;;;;;;;12.10;89.94;100024.88;5042306;28;20029;-73
2021/10/30 08:36:31;;;;;;;9.00;6.57;;;;;;;12.16;89.67;100037.91;5043461;28;20034;-72
2021/10/30 08:38:56;;;;;;;10.32;6.68;;;;;;;12.17;89.77;100020.34;5051250;28;20385;-73
2021/10/30 08:41:23;;;;;;;8.35;6.15;;;;;;;12.15;89.66;100030.03;5045755;28;20029;-72
2021/10/30 08:43:49;;;;;;;9.35;6.20;;;;;;;12.14;89.74;100026.53;5043598;28;20087;-75
2021/10/30 08:46:15;;;;;;;9.65;6.22;;;;;;;12.12;89.89;100019.56;5039686;28;20393;-72
2021/10/30 08:48:43;;;;;;;10.75;5.82;;;;;;;12.16;90.17;100032.66;5041129;28;20055;-74
2021/10/30 08:51:08;;;;;;;10.00;5.80;;;;;;;12.22;89.70;100013.22;5047156;28;20044;-74
2021/10/30 08:53:35;;;;;;;6.38;5.78;;;;;;;12.19;89.87;100011.53;5042587;28;20049;-74
2021/10/30 08:56:03;;;;;;;8.20;6.13;;;;;;;12.22;90.36;100018.47;5037131;28;20107;-70
2021/10/30 08:58:29;;;;;;;7.55;5.63;;;;;;;12.32;89.57;100020.00;5041766;28;20091;-71
2021/10/30 09:00:58;;;;;;;8.15;5.70;;;;;;;12.28;89.75;100019.19;5046101;28;20086;-68
2021/10/30 09:03:24;;;;;;;9.55;6.20;;;;;;;12.27;89.77;100016.63;5045610;28;20029;-71
2021/10/30 09:05:52;;;;;;;6.50;5.47;;;;;;;12.32;89.93;100027.91;5045650;28;20111;-68
2021/10/30 09:08:18;;;;;;;8.23;5.32;;;;;;;12.33;90.22;100007.72;5044863;28;20021;-64
2021/10/30 09:10:47;;;;;;;5.90;5.07;;;;;;;12.36;90.08;100016.44;5041019;28;20029;-64
2021/10/30 09:13:13;;;;;;;10.13;5.03;;;;;;;12.43;89.92;100006.59;5045211;28;20057;-62
2021/10/30 09:15:50;;;;;;;8.52;5.07;;;;;;;12.52;89.79;100010.81;5044151;28;20041;-64
2021/10/30 09:18:36;;;;;;;6.68;4.80;;;;;;;12.53;88.60;100005.47;5043004;28;20097;-64
2021/10/30 09:21:04;;;;;;;6.38;4.65;;;;;;;12.52;88.95;100000.25;5046015;28;20034;-63
2021/10/30 09:23:35;;;;;;;6.75;5.13;;;;;;;12.46;89.56;99999.50;5045825;28;20034;-63
2021/10/30 09:26:04;;;;;;;8.48;5.07;;;;;;;12.36;90.17;100000.63;5045524;28;20034;-63
2021/10/30 09:28:36;;;;;;;9.95;5.68;;;;;;;12.37;90.24;99996.22;5045879;28;20103;-63
2021/10/30 09:31:08;;;;;;;8.43;5.63;;;;;;;12.44;90.63;99993.41;5042201;28;20109;-63
2021/10/30 09:33:49;;;;;;;10.02;4.97;;;;;;;12.47;89.88;99981.91;5030748;28;20114;-63
2021/10/30 09:36:15;;;;;;;8.15;5.43;;;;;;;12.45;89.64;99981.94;5045128;28;20018;-63
2021/10/30 09:38:46;;;;;;;6.10;5.05;;;;;;;12.47;90.79;99993.31;5043760;28;20670;-62
2021/10/30 09:41:29;;;;;;;6.80;4.78;;;;;;;12.48;89.93;99987.16;5045008;28;20045;-63
2021/10/30 09:44:04;;;;;;;5.28;4.18;;;;;;;12.56;89.24;99980.84;5045251;28;20112;-63
2021/10/30 09:46:46;;;;;;;8.05;4.90;;;;;;;12.64;89.46;99974.47;5043969;28;20036;-63
2021/10/30 09:49:18;;;;;;;7.55;4.75;;;;;;;12.66;89.11;99979.69;5044607;28;20113;-63
2021/10/30 09:51:51;;;;;;;6.32;4.93;;;;;;;12.70;89.63;99975.22;5045378;28;20033;-64
2021/10/30 09:54:36;;;;;;;7.13;4.50;;;;;;;12.74;89.47;99972.50;5045319;28;20040;-63
2021/10/30 09:57:04;;;;;;;6.18;4.60;;;;;;;12.81;88.98;99974.06;5043706;28;20060;-63
2021/10/30 09:59:33;;;;;;;5.65;4.53;;;;;;;12.96;88.26;99978.09;5044451;28;20033;-63
2021/10/30 10:01:59;;;;;;;7.40;5.10;;;;;;;12.90;88.21;99985.28;5045269;28;20089;-63
2021/10/30 10:04:26;;;;;;;5.88;5.00;;;;;;;12.84;88.71;99979.25;5045190;28;20056;-63
2021/10/30 10:06:53;;;;;;;8.68;5.03;;;;;;;12.79;88.81;99975.00;5044115;28;20093;-61
2021/10/30 10:09:20;;;;;;;6.55;4.72;;;;;;;12.57;89.19;99985.19;5042652;28;20033;-63
2021/10/30 10:11:50;;;;;;;5.05;4.40;;;;;;;12.61;89.74;99986.88;5044527;28;20072;-63
2021/10/30 10:14:16;;;;;;;;;;;;;;;12.63;89.95;99975.38;5044230;28;20036;-60
2021/10/30 10:16:43;;;;;;;5.97;4.60;;;;;;;12.69;90.32;99971.72;5044552;28;19917;-61
2021/10/30 10:19:09;;;;;;;6.28;4.50;;;;;;;12.74;89.03;99966.34;5045247;28;20095;-61
2021/10/30 10:21:36;;;;;;;7.18;4.28;;;;;;;12.81;89.34;99970.56;5044706;28;20029;-62
2021/10/30 10:24:08;;;;;;;7.20;4.38;;;;;;;12.82;89.86;99973.16;5037890;28;20097;-61
2021/10/30 10:26:46;;;;;;;6.40;4.45;;;;;;;12.77;88.77;99971.53;5024392;28;20037;-61
2021/10/30 10:29:13;;;;;;;7.15;5.10;;;;;;;12.68;89.62;99962.09;5044107;28;20116;-61
2021/10/30 10:31:49;;;;;;;5.50;4.93;;;;;;;12.66;89.58;99963.88;5044966;28;20029;-62
2021/10/30 10:34:30;;;;;;;5.63;4.57;;;;;;;12.58;89.64;99961.44;5043994;28;20056;-61
2021/10/30 10:37:20;;;;;;;5.60;4.57;;;;;;;12.63;90.08;99953.44;5042093;28;20029;-62
2021/10/30 10:39:48;;;;;;;5.00;4.60;;;;;;;12.65;90.11;99946.38;5039395;28;20064;-62
2021/10/30 10:42:15;;;;;;;5.45;4.55;;;;;;;12.71;89.91;99955.88;5044274;28;20025;-62
2021/10/30 10:44:41;;;;;;;4.65;4.22;;;;;;;12.77;89.77;99940.78;5043920;28;20025;-61
2021/10/30 10:47:07;;;;;;;6.07;4.90;;;;;;;12.84;89.56;99946.78;5044020;28;20124;-61
2021/10/30 10:52:23;;;;;;;5.05;4.60;;;;;;;12.81;89.57;99942.41;5044456;28;20033;-62
2021/10/30 10:55:04;;;;;;;6.05;4.55;;;;;;;12.83;89.65;99945.03;5044086;28;20037;-64
2021/10/30 10:57:34;;;;;;;5.05;4.00;;;;;;;12.88;88.92;99929.97;5043939;28;20093;-62
2021/10/30 11:00:09;;;;;;;7.90;4.82;;;;;;;12.84;88.99;99937.09;5044010;28;20037;-65
2021/10/30 11:02:37;;;;;;;5.30;4.65;;;;;;;12.87;89.51;99938.75;5044208;28;20032;-67
2021/10/30 11:05:08;;;;;;;6.78;4.40;;;;;;;12.87;89.30;99939.66;5043925;28;20160;-67
2021/10/30 11:07:42;;;;;;;5.15;4.63;;;;;;;12.88;89.66;99922.91;5043210;28;20051;-67
2021/10/30 11:10:10;;;;;;;5.90;4.63;;;;;;;12.91;89.32;99924.63;5036759;28;20040;-70
2021/10/30 11:12:36;;;;;;;5.55;4.60;;;;;;;12.95;89.89;99926.28;5039199;28;20042;-66
2021/10/30 11:15:15;;;;;;;7.60;4.53;;;;;;;12.99;89.16;99922.63;5035239;28;20044;-65
2021/10/30 11:17:50;;;;;;;5.88;4.20;;;;;;;12.96;89.02;99909.53;5039711;28;20101;-64
2021/10/30 11:20:18;;;;;;;7.60;5.00;;;;;;;12.92;89.51;99909.66;5041753;28;20041;-66